Time;durP1;ratioP1;P1;durP2;ratioP2;P2;SDS_P1;SDS_P2;PMS_P1;PMS_P2;Temp;Humidity;BMP_temperature;BMP_pressure;BME280_temperature;BME280_humidity;BME280_pressure;Samples;Min_cycle;Max_cycle;Signal;HPM_P1;HPM_P2
2022/09/16 00:00:42;;;;;;;5.90;3.20;;;12.00;99.90;;;;;;5043237;28;20047;-87
2022/09/16 00:03:08;;;;;;;3.42;3.00;;;12.00;99.90;;;;;;5044722;28;20021;-88
2022/09/16 00:05:36;;;;;;;3.75;2.83;;;12.00;99.90;;;;;;5029410;28;20658;-87
2022/09/16 00:08:02;;;;;;;3.70;3.30;;;12.00;99.90;;;;;;5026921;28;20055;-87
2022/09/16 00:10:28;;;;;;;3.28;2.85;;;12.00;99.90;;;;;;5044451;28;20032;-88
2022/09/16 00:12:54;;;;;;;3.13;2.80;;;12.00;99.90;;;;;;5029699;28;20397;-87
2022/09/16 00:15:20;;;;;;;3.15;2.55;;;12.00;99.90;;;;;;5045196;28;20484;-87
2022/09/16 00:17:46;;;;;;;3.65;3.33;;;11.90;99.90;;;;;;5045395;28;20033;-87
2022/09/16 00:20:12;;;;;;;3.70;3.10;;;11.90;99.90;;;;;;5043338;28;20030;-87
2022/09/16 00:22:38;;;;;;;3.70;3.28;;;11.90;99.90;;;;;;5046424;28;20033;-87
2022/09/16 00:25:04;;;;;;;5.57;3.70;;;12.00;99.90;;;;;;5045485;28;20037;-88
2022/09/16 00:27:30;;;;;;;3.40;2.85;;;11.90;99.90;;;;;;5026671;28;20111;-87
2022/09/16 00:29:56;;;;;;;32.38;4.53;;;11.70;99.90;;;;;;5029177;28;20116;-87
2022/09/16 00:32:23;;;;;;;46.67;5.28;;;11.40;99.90;;;;;;5043889;28;20033;-87
2022/09/16 00:34:50;;;;;;;3.92;3.08;;;11.30;99.90;;;;;;5029526;28;20028;-87
2022/09/16 00:37:16;;;;;;;3.67;3.10;;;11.40;99.90;;;;;;5025232;28;20028;-87
2022/09/16 00:39:41;;;;;;;16.77;4.20;;;11.40;99.90;;;;;;5043259;28;20051;-87
2022/09/16 00:42:11;;;;;;;4.20;3.17;;;11.30;99.90;;;;;;5044041;28;20029;-87
2022/09/16 00:45:00;;;;;;;3.80;3.25;;;11.40;99.90;;;;;;5044091;28;20029;-88
2022/09/16 00:47:30;;;;;;;5.05;3.22;;;11.40;99.90;;;;;;5045695;28;20025;-87
2022/09/16 00:50:17;;;;;;;4.47;3.60;;;11.40;99.90;;;;;;5043969;28;20025;-87
2022/09/16 00:52:43;;;;;;;3.35;2.92;;;11.40;99.90;;;;;;5026836;28;20367;-87
2022/09/16 00:55:16;;;;;;;3.50;2.92;;;11.40;99.90;;;;;;5026197;28;20045;-87
2022/09/16 00:57:43;;;;;;;4.60;2.55;;;11.20;99.90;;;;;;5043124;28;20036;-87
2022/09/16 01:00:12;;;;;;;3.37;2.73;;;11.00;99.90;;;;;;5043857;28;20053;-87
2022/09/16 01:02:42;;;;;;;3.97;3.33;;;11.00;99.90;;;;;;5026150;28;20037;-87
2022/09/16 01:05:16;;;;;;;7.30;3.42;;;11.10;99.90;;;;;;5027149;28;20037;-87
2022/09/16 01:07:44;;;;;;;4.10;3.00;;;11.20;99.90;;;;;;5026208;28;20277;-87
2022/09/16 01:10:12;;;;;;;4.68;3.08;;;11.10;99.90;;;;;;5027946;28;20045;-87
2022/09/16 01:12:41;;;;;;;3.95;3.25;;;11.20;99.90;;;;;;5024994;28;20397;-87
2022/09/16 01:15:07;;;;;;;5.68;3.63;;;11.20;99.90;;;;;;5027447;28;20509;-87
2022/09/16 01:17:42;;;;;;;4.60;3.25;;;11.20;99.90;;;;;;5044121;28;20044;-87
2022/09/16 01:20:14;;;;;;;6.07;3.20;;;11.20;99.90;;;;;;5043415;28;20028;-87
2022/09/16 01:23:13;;;;;;;7.30;3.78;;;11.20;99.90;;;;;;5028205;28;20488;-87
2022/09/16 01:26:03;;;;;;;4.57;3.67;;;11.20;99.90;;;;;;5026432;28;20033;-87
2022/09/16 01:29:12;;;;;;;5.22;4.15;;;11.30;99.90;;;;;;5024792;28;20048;-87
2022/09/16 01:32:04;;;;;;;8.82;4.50;;;11.40;99.90;;;;;;5025015;28;20037;-87
2022/09/16 01:34:57;;;;;;;5.65;4.43;;;11.50;99.90;;;;;;5043670;28;20058;-87
2022/09/16 01:37:42;;;;;;;5.45;4.35;;;11.50;99.90;;;;;;5026735;28;20074;-87
2022/09/16 01:40:10;;;;;;;6.15;4.95;;;11.60;99.90;;;;;;5024440;28;20029;-87
2022/09/16 01:43:07;;;;;;;5.90;4.95;;;11.60;99.90;;;;;;5044332;28;20124;-87
2022/09/16 01:45:54;;;;;;;9.05;5.57;;;11.60;99.90;;;;;;5042811;28;20063;-87
2022/09/16 01:48:24;;;;;;;7.60;4.45;;;11.60;99.90;;;;;;5041310;28;20036;-87
2022/09/16 01:51:10;;;;;;;6.40;4.47;;;11.70;99.90;;;;;;5043865;28;20039;-87
2022/09/16 01:54:03;;;;;;;9.90;4.82;;;11.60;99.90;;;;;;5032704;28;20036;-87
2022/09/16 01:56:51;;;;;;;5.90;4.55;;;11.60;99.90;;;;;;4993818;28;20060;-87
2022/09/16 01:59:49;;;;;;;9.38;5.63;;;11.60;99.90;;;;;;5042745;28;20032;-87
2022/09/16 02:02:25;;;;;;;6.53;5.30;;;11.60;99.90;;;;;;5028067;28;20033;-87
2022/09/16 02:04:55;;;;;;;8.82;5.65;;;11.60;99.90;;;;;;5026040;28;20493;-87
2022/09/16 02:07:26;;;;;;;10.00;5.30;;;11.60;99.90;;;;;;5025656;28;20028;-87
2022/09/16 02:09:57;;;;;;;7.97;5.35;;;11.70;99.90;;;;;;5021501;28;20048;-87
2022/09/16 02:12:28;;;;;;;9.88;5.18;;;11.70;99.90;;;;;;5042144;28;20031;-87
2022/09/16 02:15:02;;;;;;;9.10;6.30;;;11.70;99.90;;;;;;5045030;28;21782;-87
2022/09/16 02:17:32;;;;;;;7.18;5.38;;;11.80;99.90;;;;;;5045040;28;20083;-87
2022/09/16 02:20:04;;;;;;;10.55;5.70;;;11.80;99.90;;;;;;5024280;28;20696;-87
2022/09/16 02:22:40;;;;;;;8.38;5.57;;;11.80;99.90;;;;;;5047126;28;20054;-87
2022/09/16 02:25:08;;;;;;;7.72;5.00;;;11.80;99.90;;;;;;5025980;28;20029;-87
2022/09/16 02:27:38;;;;;;;8.48;5.22;;;11.80;99.90;;;;;;5027579;28;20017;-88
2022/09/16 02:30:10;;;;;;;9.80;5.07;;;11.90;99.90;;;;;;5041515;28;20028;-87
2022/09/16 02:32:55;;;;;;;9.15;5.60;;;11.90;99.90;;;;;;5015324;28;20037;-87
2022/09/16 02:35:22;;;;;;;8.25;4.82;;;11.80;99.90;;;;;;5045213;28;20385;-87
2022/09/16 02:37:55;;;;;;;9.43;5.43;;;11.80;99.90;;;;;;5048024;28;20539;-87
2022/09/16 02:40:58;;;;;;;7.15;5.13;;;11.90;99.90;;;;;;5029871;28;20450;-87
2022/09/16 02:43:25;;;;;;;6.30;4.28;;;11.90;99.90;;;;;;4954229;28;20050;-87
2022/09/16 02:45:58;;;;;;;7.40;4.93;;;11.90;99.90;;;;;;5013439;28;20040;-87
2022/09/16 02:48:34;;;;;;;8.00;4.60;;;11.90;99.90;;;;;;5032606;28;20029;-87
2022/09/16 02:51:03;;;;;;;9.25;4.80;;;11.80;99.90;;;;;;5032494;28;20022;-87
2022/09/16 02:53:50;;;;;;;8.57;5.03;;;11.90;99.90;;;;;;5030759;28;20056;-87
2022/09/16 02:56:29;;;;;;;10.18;5.70;;;11.90;99.90;;;;;;5047484;28;20037;-87
2022/09/16 02:58:55;;;;;;;9.88;5.70;;;11.80;99.90;;;;;;5046778;28;20481;-87
2022/09/16 03:01:23;;;;;;;9.95;5.55;;;11.70;99.90;;;;;;5029624;28;20033;-87
2022/09/16 03:03:50;;;;;;;9.75;5.57;;;11.70;99.90;;;;;;5031766;28;20033;-87
2022/09/16 03:06:27;;;;;;;8.73;5.55;;;11.70;99.90;;;;;;5048672;28;20043;-87
2022/09/16 03:08:57;;;;;;;7.00;5.47;;;11.60;99.90;;;;;;5029922;28;20077;-88
2022/09/16 03:11:46;;;;;;;6.10;4.65;;;11.70;99.90;;;;;;5026087;28;20043;-87
2022/09/16 03:14:12;;;;;;;13.05;5.70;;;11.70;99.90;;;;;;5028255;28;20651;-87
2022/09/16 03:17:04;;;;;;;8.23;5.15;;;11.70;99.90;;;;;;5050827;28;20022;-87
2022/09/16 03:19:33;;;;;;;6.65;4.75;;;11.70;99.90;;;;;;5030234;28;20473;-87
2022/09/16 03:22:32;;;;;;;8.68;4.97;;;11.80;99.90;;;;;;5031911;28;20028;-87
2022/09/16 03:25:05;;;;;;;7.47;5.10;;;11.80;99.90;;;;;;5053489;28;20037;-87
2022/09/16 03:27:56;;;;;;;8.90;5.15;;;11.80;99.90;;;;;;5034333;28;20040;-87
2022/09/16 03:30:22;;;;;;;7.70;4.88;;;11.80;99.90;;;;;;5037020;28;20025;-87
2022/09/16 03:33:01;;;;;;;8.25;5.30;;;11.80;99.90;;;;;;5040554;28;20488;-87
2022/09/16 03:35:31;;;;;;;8.68;5.75;;;11.90;99.90;;;;;;5034730;28;20473;-87
2022/09/16 03:37:59;;;;;;;11.00;6.55;;;11.80;99.90;;;;;;5049741;28;20029;-87
2022/09/16 03:40:28;;;;;;;11.13;6.15;;;11.80;99.90;;;;;;5034929;28;20029;-87
2022/09/16 03:42:56;;;;;;;11.35;6.15;;;11.80;99.90;;;;;;5046712;28;20033;-87
2022/09/16 03:45:22;;;;;;;8.73;5.75;;;11.80;99.90;;;;;;5048668;28;20036;-87
2022/09/16 03:47:50;;;;;;;8.02;5.45;;;11.80;99.90;;;;;;5028164;28;20473;-87
2022/09/16 03:50:17;;;;;;;8.63;4.93;;;11.80;99.90;;;;;;5032004;28;20025;-87
2022/09/16 03:52:42;;;;;;;10.57;4.80;;;11.80;99.90;;;;;;5051773;28;20023;-87
2022/09/16 03:55:09;;;;;;;9.57;5.13;;;11.80;99.90;;;;;;5053231;28;20029;-87
2022/09/16 03:57:36;;;;;;;7.20;4.78;;;11.80;99.90;;;;;;5052645;28;20036;-87
2022/09/16 04:00:04;;;;;;;8.07;4.22;;;11.80;99.90;;;;;;5047347;28;20095;-87
2022/09/16 04:02:29;;;;;;;8.07;4.78;;;11.80;99.90;;;;;;5031955;28;20033;-87
2022/09/16 04:04:55;;;;;;;5.75;4.45;;;11.70;99.90;;;;;;5053355;28;20035;-87
2022/09/16 04:07:21;;;;;;;12.25;5.50;;;11.70;99.90;;;;;;5050965;28;20021;-87
2022/09/16 04:09:47;;;;;;;7.72;5.07;;;11.80;99.90;;;;;;5050580;28;20064;-87
2022/09/16 04:12:13;;;;;;;6.97;5.40;;;11.70;99.90;;;;;;5038993;28;20031;-87
2022/09/16 04:14:39;;;;;;;7.22;5.03;;;11.70;99.90;;;;;;5032141;28;20017;-87
2022/09/16 04:17:05;;;;;;;7.88;5.72;;;11.60;99.90;;;;;;5028814;28;20379;-87
2022/09/16 04:19:31;;;;;;;10.82;6.32;;;11.70;99.90;;;;;;5033877;28;20025;-87
2022/09/16 04:21:57;;;;;;;9.57;5.70;;;11.60;99.90;;;;;;5048598;28;20025;-87
2022/09/16 04:24:23;;;;;;;10.40;6.07;;;11.60;99.90;;;;;;5052778;28;20037;-87
2022/09/16 04:26:49;;;;;;;9.85;6.80;;;11.60;99.90;;;;;;5050862;28;20020;-87
2022/09/16 04:29:16;;;;;;;11.60;6.25;;;11.60;99.90;;;;;;5052329;28;20787;-87
2022/09/16 04:31:42;;;;;;;9.52;6.13;;;11.70;99.90;;;;;;5050723;28;20386;-87
2022/09/16 04:34:18;;;;;;;8.98;5.80;;;11.60;99.90;;;;;;5035953;28;20060;-87
2022/09/16 04:36:44;;;;;;;9.23;5.80;;;11.60;99.90;;;;;;5048236;28;20021;-87
2022/09/16 04:39:11;;;;;;;9.48;6.07;;;11.70;99.90;;;;;;5050175;28;20074;-87
2022/09/16 04:41:37;;;;;;;9.95;6.47;;;11.70;99.90;;;;;;5052850;28;20029;-87
2022/09/16 04:44:03;;;;;;;9.80;5.93;;;11.70;99.90;;;;;;5048880;28;20021;-88
2022/09/16 04:46:31;;;;;;;9.73;6.53;;;11.70;99.90;;;;;;5050893;28;20079;-87
2022/09/16 04:48:58;;;;;;;9.77;6.40;;;11.80;99.90;;;;;;5050765;28;20025;-87
2022/09/16 04:51:28;;;;;;;10.60;6.85;;;11.80;99.90;;;;;;5050575;28;20028;-87
2022/09/16 04:53:55;;;;;;;9.48;6.10;;;11.80;99.90;;;;;;5048754;28;20145;-87
2022/09/16 04:56:24;;;;;;;10.02;5.93;;;11.80;99.90;;;;;;5052322;28;20101;-87
2022/09/16 04:58:55;;;;;;;10.48;6.00;;;11.80;99.90;;;;;;5032941;28;20021;-87
2022/09/16 05:01:26;;;;;;;8.23;6.05;;;11.90;99.90;;;;;;5027583;28;20041;-87
2022/09/16 05:03:54;;;;;;;11.02;6.30;;;11.90;99.90;;;;;;5051551;28;20465;-87
2022/09/16 05:06:25;;;;;;;9.73;5.97;;;11.90;99.90;;;;;;5034000;28;20132;-87
2022/09/16 05:08:53;;;;;;;8.52;5.75;;;11.90;99.90;;;;;;5048791;28;20025;-87
2022/09/16 05:11:22;;;;;;;9.90;6.53;;;11.90;99.90;;;;;;5047907;28;20037;-87
2022/09/16 05:13:49;;;;;;;14.05;7.10;;;12.00;99.90;;;;;;5051168;28;20029;-87
2022/09/16 05:16:17;;;;;;;9.43;6.43;;;12.00;99.90;;;;;;5031211;28;20469;-88
2022/09/16 05:18:45;;;;;;;11.85;7.70;;;12.00;99.90;;;;;;5034822;28;20132;-87
2022/09/16 05:21:14;;;;;;;10.68;7.30;;;12.00;99.90;;;;;;5025860;28;20063;-87
2022/09/16 05:23:40;;;;;;;10.30;6.38;;;12.00;99.90;;;;;;5024316;28;21758;-87
2022/09/16 05:26:08;;;;;;;11.10;7.00;;;12.10;99.90;;;;;;5024003;28;20033;-86
2022/09/16 05:28:35;;;;;;;9.55;7.07;;;12.10;99.90;;;;;;5047761;28;20024;-86
2022/09/16 05:31:12;;;;;;;14.50;7.32;;;12.10;99.90;;;;;;5050928;28;20029;-86
2022/09/16 05:33:39;;;;;;;12.65;7.00;;;12.00;99.90;;;;;;5034579;28;20083;-86
2022/09/16 05:36:06;;;;;;;10.13;6.38;;;12.10;99.90;;;;;;5050857;28;20047;-86
2022/09/16 05:38:32;;;;;;;10.57;6.80;;;12.10;99.90;;;;;;5044861;28;20077;-86
2022/09/16 05:40:59;;;;;;;9.43;6.35;;;12.10;99.90;;;;;;5017340;28;20272;-86
2022/09/16 05:43:25;;;;;;;12.80;7.13;;;12.10;99.90;;;;;;5043682;28;20029;-86
2022/09/16 05:45:52;;;;;;;11.82;6.70;;;12.20;99.90;;;;;;5049699;28;20043;-86
2022/09/16 05:48:17;;;;;;;8.60;5.93;;;12.20;99.90;;;;;;5053284;28;20021;-86
2022/09/16 05:51:04;;;;;;;10.50;6.32;;;12.20;99.90;;;;;;5050942;28;20104;-86
2022/09/16 05:53:31;;;;;;;9.48;5.78;;;12.30;99.90;;;;;;5029524;28;20028;-86
2022/09/16 05:55:58;;;;;;;8.57;5.93;;;12.30;99.90;;;;;;5049626;28;20101;-86
2022/09/16 05:58:25;;;;;;;8.77;6.10;;;12.30;99.90;;;;;;5046931;28;20035;-86
2022/09/16 06:00:56;;;;;;;19.60;7.28;;;12.40;99.90;;;;;;5032155;28;20064;-86
2022/09/16 06:03:22;;;;;;;11.18;6.78;;;12.40;99.90;;;;;;5029113;28;20748;-87
2022/09/16 06:05:48;;;;;;;9.38;6.00;;;12.50;99.90;;;;;;5035665;28;20033;-86
2022/09/16 06:08:13;;;;;;;10.77;6.07;;;12.50;99.90;;;;;;5031438;28;20037;-86
2022/09/16 06:10:40;;;;;;;12.57;6.78;;;12.50;99.90;;;;;;5052583;28;20044;-86
2022/09/16 06:13:06;;;;;;;9.50;6.68;;;12.50;99.90;;;;;;5066841;28;20120;-86
2022/09/16 06:15:33;;;;;;;9.15;6.32;;;12.60;99.90;;;;;;5046570;28;20088;-86
2022/09/16 06:17:58;;;;;;;10.48;6.40;;;12.60;99.90;;;;;;5048628;28;20029;-86
2022/09/16 06:20:24;;;;;;;10.40;6.13;;;12.70;99.90;;;;;;5056850;28;20036;-86
2022/09/16 06:22:49;;;;;;;7.80;5.50;;;12.70;99.90;;;;;;5042648;28;22202;-86
2022/09/16 06:25:15;;;;;;;13.63;6.47;;;12.70;99.90;;;;;;5050459;28;20373;-86
2022/09/16 06:27:41;;;;;;;9.75;6.38;;;12.80;99.90;;;;;;5051971;28;20096;-86
2022/09/16 06:30:07;;;;;;;10.13;6.53;;;12.80;99.90;;;;;;5048753;28;20411;-86
2022/09/16 06:32:33;;;;;;;14.05;6.85;;;12.80;99.90;;;;;;5040812;28;20026;-86
2022/09/16 06:34:58;;;;;;;12.50;6.85;;;12.80;99.90;;;;;;5047752;28;20634;-86
2022/09/16 06:37:25;;;;;;;9.82;6.85;;;12.90;99.90;;;;;;5051476;28;20029;-86
2022/09/16 06:39:50;;;;;;;10.20;7.30;;;12.90;99.90;;;;;;5059655;28;20021;-86
2022/09/16 06:42:16;;;;;;;13.65;6.32;;;12.90;99.90;;;;;;5052281;28;20021;-87
2022/09/16 06:44:42;;;;;;;16.20;7.75;;;13.00;99.90;;;;;;5067574;28;20511;-86
2022/09/16 06:47:08;;;;;;;9.27;6.25;;;13.00;99.90;;;;;;5066958;28;20025;-86
2022/09/16 06:49:33;;;;;;;11.45;6.55;;;13.00;99.90;;;;;;5049614;28;20028;-86
2022/09/16 06:51:59;;;;;;;10.65;6.60;;;13.00;99.90;;;;;;5044622;28;20055;-86
2022/09/16 06:54:24;;;;;;;10.73;6.22;;;13.00;99.90;;;;;;5051592;28;20420;-86
2022/09/16 06:56:50;;;;;;;11.38;6.88;;;13.10;99.90;;;;;;5048552;28;20070;-86
2022/09/16 06:59:16;;;;;;;9.55;6.72;;;13.10;99.90;;;;;;5060571;28;20029;-86
2022/09/16 07:01:41;;;;;;;7.72;5.60;;;13.10;99.90;;;;;;5050410;28;20112;-86
2022/09/16 07:04:12;;;;;;;9.57;6.78;;;13.10;99.90;;;;;;5041576;28;20033;-87
2022/09/16 07:06:38;;;;;;;9.93;6.47;;;13.10;99.90;;;;;;5049147;28;20075;-86
2022/09/16 07:09:05;;;;;;;9.07;6.20;;;13.20;99.90;;;;;;5051878;28;20032;-86
2022/09/16 07:11:31;;;;;;;9.65;6.20;;;13.20;99.90;;;;;;5043326;28;20148;-86
2022/09/16 07:13:58;;;;;;;10.77;6.45;;;13.20;99.90;;;;;;5066743;28;20080;-86
2022/09/16 07:16:25;;;;;;;11.63;7.43;;;13.20;99.90;;;;;;5050544;28;20068;-86
2022/09/16 07:18:58;;;;;;;12.55;7.32;;;13.30;99.90;;;;;;5050580;28;20037;-86
2022/09/16 07:21:28;;;;;;;12.95;6.78;;;13.30;99.90;;;;;;5048551;28;20037;-86
2022/09/16 07:24:00;;;;;;;10.85;6.63;;;13.30;99.90;;;;;;5056108;28;20033;-86
2022/09/16 07:26:29;;;;;;;10.13;6.82;;;13.30;99.90;;;;;;5052279;28;20025;-86
2022/09/16 07:28:57;;;;;;;11.10;6.93;;;13.40;99.90;;;;;;5054604;28;20516;-86
2022/09/16 07:31:25;;;;;;;10.68;6.88;;;13.40;99.90;;;;;;5051081;28;20052;-86
2022/09/16 07:33:52;;;;;;;10.40;7.55;;;13.40;99.90;;;;;;5051277;28;20105;-86
2022/09/16 07:36:26;;;;;;;12.20;7.97;;;13.40;99.90;;;;;;5056374;28;20070;-86
2022/09/16 07:38:56;;;;;;;10.23;6.95;;;13.40;99.90;;;;;;5058328;28;20029;-86
2022/09/16 07:41:23;;;;;;;11.65;7.30;;;13.40;99.90;;;;;;5051077;28;20055;-86
2022/09/16 07:43:50;;;;;;;12.65;8.73;;;13.40;99.90;;;;;;5060001;28;20086;-85
2022/09/16 07:46:17;;;;;;;10.60;7.00;;;13.50;99.90;;;;;;5056421;28;20043;-86
2022/09/16 07:48:44;;;;;;;10.02;6.57;;;13.60;99.90;;;;;;5053655;28;20017;-85
2022/09/16 07:51:13;;;;;;;12.07;7.10;;;13.60;99.90;;;;;;5044130;28;20029;-86
2022/09/16 07:53:39;;;;;;;10.95;7.50;;;13.70;99.90;;;;;;5047715;28;20025;-86
2022/09/16 07:56:17;;;;;;;9.30;6.57;;;13.80;99.90;;;;;;5055044;28;21464;-85
2022/09/16 07:58:46;;;;;;;13.52;7.45;;;13.90;99.90;;;;;;5070615;28;20029;-86
2022/09/16 08:01:16;;;;;;;9.30;6.40;;;14.00;99.90;;;;;;5045009;28;20060;-86
2022/09/16 08:03:44;;;;;;;9.73;6.65;;;14.00;99.90;;;;;;5050555;28;20025;-86
2022/09/16 08:06:15;;;;;;;9.88;6.50;;;13.90;99.90;;;;;;5067428;28;20072;-86
2022/09/16 08:08:42;;;;;;;11.32;6.97;;;13.90;99.90;;;;;;5052799;28;20436;-86
2022/09/16 08:11:09;;;;;;;11.82;6.85;;;13.90;99.90;;;;;;5044729;28;20144;-86
2022/09/16 08:13:36;;;;;;;9.82;7.07;;;13.90;99.90;;;;;;5046193;28;20029;-86
2022/09/16 08:16:05;;;;;;;14.02;7.50;;;13.90;99.90;;;;;;5055704;28;20580;-85
2022/09/16 08:18:32;;;;;;;11.55;6.80;;;13.90;99.90;;;;;;5053371;28;20389;-85
2022/09/16 08:21:00;;;;;;;10.55;6.47;;;13.90;99.90;;;;;;5048144;28;20036;-86
2022/09/16 08:23:25;;;;;;;9.82;6.10;;;13.90;99.90;;;;;;5055337;28;20033;-86
2022/09/16 08:25:58;;;;;;;8.88;6.13;;;13.90;99.90;;;;;;5068107;28;20030;-86
2022/09/16 08:28:25;;;;;;;9.05;5.82;;;13.80;99.90;;;;;;5053361;28;20042;-86
2022/09/16 08:30:51;;;;;;;12.27;6.93;;;13.70;99.90;;;;;;5061931;28;20053;-86
2022/09/16 08:33:20;;;;;;;11.02;6.93;;;13.70;99.90;;;;;;5053299;28;20513;-86
2022/09/16 08:36:16;;;;;;;11.32;7.20;;;13.60;99.90;;;;;;5068749;28;20028;-86
2022/09/16 08:38:43;;;;;;;9.65;6.75;;;13.60;99.90;;;;;;5064477;28;20040;-86
2022/09/16 08:41:30;;;;;;;9.32;5.55;;;13.60;99.90;;;;;;5044272;28;20123;-85
2022/09/16 08:44:17;;;;;;;8.75;5.55;;;13.60;99.90;;;;;;5066125;28;20052;-86
2022/09/16 08:46:46;;;;;;;9.37;5.90;;;13.60;99.90;;;;;;5058395;28;20405;-85
2022/09/16 08:49:17;;;;;;;;;;;13.60;99.90;;;;;;5061942;28;20033;-86
2022/09/16 08:51:45;;;;;;;8.27;5.50;;;13.50;99.90;;;;;;5040287;28;19912;-86
2022/09/16 08:54:24;;;;;;;7.63;4.90;;;13.50;99.90;;;;;;5051762;28;20025;-86
2022/09/16 08:56:52;;;;;;;6.85;5.05;;;13.30;99.90;;;;;;5049091;28;20039;-86
2022/09/16 08:59:24;;;;;;;6.63;4.20;;;13.10;99.90;;;;;;5040355;28;20507;-86
2022/09/16 09:01:58;;;;;;;6.53;4.55;;;12.90;99.90;;;;;;5058146;28;20258;-85
2022/09/16 09:04:25;;;;;;;6.40;4.75;;;12.80;99.90;;;;;;5054260;28;20033;-86
2022/09/16 09:07:07;;;;;;;7.80;4.68;;;12.70;99.90;;;;;;5048074;28;20021;-85
2022/09/16 09:09:53;;;;;;;6.13;3.75;;;12.80;99.90;;;;;;5065971;28;20046;-86
2022/09/16 09:12:53;;;;;;;7.38;3.58;;;12.70;99.90;;;;;;5046245;28;20029;-86
2022/09/16 09:15:32;;;;;;;6.78;3.50;;;12.60;99.90;;;;;;5047950;28;20045;-86
2022/09/16 09:18:27;;;;;;;4.38;3.70;;;12.60;99.90;;;;;;5072934;28;20063;-85
2022/09/16 09:21:08;;;;;;;6.60;3.85;;;12.50;99.90;;;;;;5055399;28;20025;-85
2022/09/16 09:23:39;;;;;;;5.65;3.95;;;12.40;99.90;;;;;;5064442;28;20032;-86
2022/09/16 09:26:21;;;;;;;6.88;4.30;;;12.30;99.90;;;;;;5077542;28;20032;-86
2022/09/16 09:29:26;;;;;;;9.05;4.65;;;12.30;99.90;;;;;;5070542;28;20015;-86
2022/09/16 09:32:09;;;;;;;6.22;3.83;;;12.40;99.90;;;;;;5067168;28;20092;-86
2022/09/16 09:34:53;;;;;;;8.18;4.53;;;12.50;99.90;;;;;;5067551;28;20029;-85
2022/09/16 09:37:36;;;;;;;9.57;5.97;;;12.40;99.90;;;;;;5069564;28;20025;-85
2022/09/16 09:40:08;;;;;;;8.80;4.03;;;12.40;99.90;;;;;;5048628;28;20032;-85
2022/09/16 09:42:44;;;;;;;5.78;3.72;;;12.40;99.90;;;;;;5054107;28;20036;-86
2022/09/16 09:45:27;;;;;;;5.85;4.10;;;12.30;99.90;;;;;;5050892;28;20029;-85
2022/09/16 09:48:22;;;;;;;5.43;3.72;;;12.30;99.90;;;;;;5049268;28;20036;-86
2022/09/16 09:50:49;;;;;;;7.50;4.38;;;12.20;99.90;;;;;;5041372;28;20105;-86
2022/09/16 09:53:45;;;;;;;9.23;4.27;;;12.10;99.90;;;;;;5033361;28;20493;-85
2022/09/16 09:56:19;;;;;;;6.55;4.18;;;12.00;99.90;;;;;;5066995;28;20032;-86
2022/09/16 09:59:26;;;;;;;6.47;3.80;;;11.90;99.90;;;;;;5045372;28;20028;-86
2022/09/16 10:01:54;;;;;;;7.28;3.83;;;11.90;99.90;;;;;;5056918;28;20039;-86
2022/09/16 10:04:19;;;;;;;7.68;4.00;;;11.90;99.90;;;;;;5067232;28;20033;-86
2022/09/16 10:06:47;;;;;;;6.13;4.00;;;12.00;99.90;;;;;;5051514;28;20079;-86
2022/09/16 10:09:15;;;;;;;4.67;3.67;;;12.00;99.90;;;;;;5053217;28;20057;-86
2022/09/16 10:11:48;;;;;;;6.97;3.42;;;12.10;99.90;;;;;;5049788;28;20279;-86
2022/09/16 10:14:24;;;;;;;5.60;3.70;;;12.00;99.90;;;;;;5063813;28;20029;-87
2022/09/16 10:16:51;;;;;;;8.30;4.32;;;12.20;99.90;;;;;;5049871;28;20477;-86
2022/09/16 10:19:24;;;;;;;7.95;4.75;;;12.10;99.90;;;;;;5053475;28;20027;-86
2022/09/16 10:21:53;;;;;;;9.73;4.68;;;12.10;99.90;;;;;;5050579;28;20021;-86
2022/09/16 10:24:29;;;;;;;7.90;4.15;;;12.00;99.90;;;;;;5051952;28;20032;-86
2022/09/16 10:26:55;;;;;;;7.82;4.50;;;12.10;99.90;;;;;;5054047;28;20048;-86
2022/09/16 10:29:21;;;;;;;6.63;4.10;;;12.10;99.90;;;;;;5056647;28;20025;-86
2022/09/16 10:31:47;;;;;;;6.28;3.63;;;12.10;99.90;;;;;;5038378;28;20039;-86
2022/09/16 10:34:35;;;;;;;4.15;3.20;;;12.20;99.90;;;;;;5061267;28;20089;-86
2022/09/16 10:37:18;;;;;;;3.40;2.67;;;12.10;99.90;;;;;;5029413;28;20025;-85
2022/09/16 10:39:51;;;;;;;3.75;3.35;;;12.10;99.90;;;;;;5058973;28;20083;-86
2022/09/16 10:42:27;;;;;;;4.10;3.10;;;12.10;99.90;;;;;;5047770;28;20029;-85
2022/09/16 10:44:58;;;;;;;3.78;3.00;;;11.90;99.90;;;;;;5053105;28;20033;-86
2022/09/16 10:47:29;;;;;;;3.20;2.90;;;11.90;99.90;;;;;;5050040;28;20053;-86
2022/09/16 10:50:00;;;;;;;3.58;2.75;;;12.00;99.90;;;;;;5059253;28;20040;-86
2022/09/16 10:52:30;;;;;;;2.75;2.50;;;11.80;99.90;;;;;;5046558;28;20021;-86
2022/09/16 10:54:56;;;;;;;3.60;2.38;;;11.80;99.90;;;;;;5046821;28;20040;-86
2022/09/16 10:57:28;;;;;;;3.05;2.63;;;11.80;99.90;;;;;;5054408;28;20125;-86
2022/09/16 11:00:11;;;;;;;3.22;2.83;;;11.90;99.90;;;;;;5070397;28;20037;-86
2022/09/16 11:02:54;;;;;;;3.15;2.53;;;11.80;99.90;;;;;;5070940;28;20782;-86
2022/09/16 11:05:44;;;;;;;3.17;2.35;;;11.80;99.90;;;;;;5066842;28;20033;-86
2022/09/16 11:08:41;;;;;;;3.67;2.08;;;12.00;99.90;;;;;;5050738;28;20394;-86
2022/09/16 11:11:12;;;;;;;4.40;2.10;;;11.90;99.90;;;;;;5061969;28;20053;-86
2022/09/16 11:13:37;;;;;;;3.35;2.50;;;12.00;99.90;;;;;;5073054;28;20059;-86
2022/09/16 11:16:40;;;;;;;2.63;2.42;;;12.10;99.90;;;;;;5041231;28;20033;-86
2022/09/16 11:19:21;;;;;;;5.03;2.38;;;12.20;99.90;;;;;;5051571;28;20034;-86
2022/09/16 11:21:58;;;;;;;3.88;2.45;;;12.30;99.90;;;;;;5055214;28;20025;-86
2022/09/16 11:25:01;;;;;;;3.90;2.40;;;12.30;99.90;;;;;;5039606;28;20037;-86
2022/09/16 11:27:44;;;;;;;4.00;2.08;;;12.40;99.90;;;;;;5054553;28;20025;-85
2022/09/16 11:30:12;;;;;;;3.65;1.92;;;12.30;99.90;;;;;;5071951;28;20021;-86
2022/09/16 11:32:56;;;;;;;2.53;1.90;;;12.30;99.90;;;;;;5069156;28;20052;-86
2022/09/16 11:35:31;;;;;;;3.95;1.98;;;12.20;99.90;;;;;;5037052;28;20128;-86
2022/09/16 11:38:37;;;;;;;2.35;2.20;;;12.30;99.90;;;;;;5060496;28;20063;-87
2022/09/16 11:41:15;;;;;;;4.80;2.40;;;12.30;99.90;;;;;;5029211;28;20673;-86
2022/09/16 11:44:02;;;;;;;2.38;2.17;;;12.30;99.90;;;;;;5046349;28;20112;-86
2022/09/16 11:46:51;;;;;;;2.70;2.00;;;12.30;99.90;;;;;;5033449;28;20096;-86
2022/09/16 11:49:29;;;;;;;3.35;1.90;;;12.30;99.90;;;;;;5055218;28;20795;-86
2022/09/16 11:52:24;;;;;;;2.63;2.25;;;12.30;99.90;;;;;;5066445;28;20028;-87
2022/09/16 11:55:02;;;;;;;2.30;2.10;;;12.20;99.90;;;;;;5062969;28;20029;-86
2022/09/16 11:57:41;;;;;;;2.42;2.00;;;12.20;99.90;;;;;;5064834;28;20143;-87
2022/09/16 12:00:16;;;;;;;5.15;2.58;;;12.20;99.90;;;;;;5051296;28;20033;-86
2022/09/16 12:02:57;;;;;;;3.38;2.40;;;12.20;99.90;;;;;;5055986;28;20037;-87
2022/09/16 12:05:32;;;;;;;5.13;2.50;;;12.20;99.90;;;;;;5060761;28;20064;-86
2022/09/16 12:08:03;;;;;;;4.03;2.75;;;12.10;99.90;;;;;;5051123;28;20094;-86
2022/09/16 12:10:52;;;;;;;2.63;2.30;;;12.20;99.90;;;;;;5040507;28;20037;-86
2022/09/16 12:13:29;;;;;;;3.47;2.20;;;12.20;99.90;;;;;;5052685;28;20040;-86
2022/09/16 12:15:58;;;;;;;3.22;2.40;;;12.20;99.90;;;;;;5052206;28;20037;-86
2022/09/16 12:18:35;;;;;;;2.80;2.35;;;12.20;99.90;;;;;;5055252;28;20036;-86
2022/09/16 12:21:24;;;;;;;3.30;2.45;;;12.30;99.90;;;;;;5043038;28;20026;-86
2022/09/16 12:24:20;;;;;;;2.95;2.60;;;12.40;99.90;;;;;;5065430;28;20192;-86
2022/09/16 12:27:09;;;;;;;3.85;2.05;;;12.50;99.90;;;;;;5067250;28;20030;-86
2022/09/16 12:29:57;;;;;;;2.95;2.30;;;12.50;99.90;;;;;;5043014;28;20036;-85
2022/09/16 12:32:58;;;;;;;5.93;2.53;;;12.60;99.90;;;;;;5043461;28;20025;-86
2022/09/16 12:35:40;;;;;;;3.60;2.33;;;12.60;99.90;;;;;;5033478;28;20033;-85
2022/09/16 12:38:16;;;;;;;5.50;2.80;;;12.50;99.90;;;;;;5040430;28;20039;-86
2022/09/16 12:40:53;;;;;;;2.67;2.13;;;12.50;99.90;;;;;;5055381;28;20508;-85
2022/09/16 12:43:53;;;;;;;3.47;2.72;;;12.30;99.90;;;;;;5055764;28;20096;-85
2022/09/16 12:46:19;;;;;;;3.47;2.72;;;12.30;99.90;;;;;;5050082;28;20389;-85
2022/09/16 12:49:07;;;;;;;2.97;2.67;;;12.30;99.90;;;;;;5065923;28;20675;-86
2022/09/16 12:52:17;;;;;;;4.03;2.72;;;12.40;99.90;;;;;;5066838;28;20028;-85
2022/09/16 12:55:07;;;;;;;3.72;2.75;;;12.30;99.90;;;;;;5041840;28;20033;-85
2022/09/16 12:57:45;;;;;;;3.80;3.13;;;12.30;99.90;;;;;;5052124;28;20035;-86
2022/09/16 13:00:17;;;;;;;4.97;3.00;;;12.50;99.90;;;;;;5044845;28;20025;-86
2022/09/16 13:03:07;;;;;;;4.60;3.30;;;12.70;99.90;;;;;;5053865;28;20112;-86
2022/09/16 13:05:35;;;;;;;6.38;3.10;;;12.90;99.90;;;;;;5030651;28;20039;-86
2022/09/16 13:08:17;;;;;;;2.95;2.42;;;13.00;99.90;;;;;;5054558;28;20032;-86
2022/09/16 13:10:43;;;;;;;4.07;2.60;;;13.00;99.90;;;;;;5051882;28;20742;-86
2022/09/16 13:13:18;;;;;;;12.05;3.03;;;13.10;99.90;;;;;;5069020;28;20060;-86
2022/09/16 13:15:55;;;;;;;5.45;2.75;;;13.00;99.90;;;;;;5053128;28;20025;-87
2022/09/16 13:18:26;;;;;;;4.95;2.70;;;13.10;99.90;;;;;;5051858;28;20586;-86